sensor_id;sensor_type;location;lat;lon;timestamp;P1;durP1;ratioP1;P2;durP2;ratioP2
63012;SDS011;62113;45.624;11.700;2022-07-24T00:02:06;8.38;;;4.65;;
63012;SDS011;62113;45.624;11.700;2022-07-24T00:04:32;8.45;;;4.30;;
63012;SDS011;62113;45.624;11.700;2022-07-24T00:06:57;9.27;;;4.97;;
63012;SDS011;62113;45.624;11.700;2022-07-24T00:09:23;10.20;;;4.80;;
63012;SDS011;62113;45.624;11.700;2022-07-24T00:11:49;10.02;;;4.50;;
63012;SDS011;62113;45.624;11.700;2022-07-24T00:14:14;8.90;;;4.57;;
63012;SDS011;62113;45.624;11.700;2022-07-24T00:16:40;8.52;;;4.60;;
63012;SDS011;62113;45.624;11.700;2022-07-24T00:19:06;5.43;;;4.47;;
63012;SDS011;62113;45.624;11.700;2022-07-24T00:21:31;5.75;;;4.53;;
63012;SDS011;62113;45.624;11.700;2022-07-24T00:26:23;14.05;;;5.22;;
63012;SDS011;62113;45.624;11.700;2022-07-24T00:28:49;9.35;;;4.82;;
63012;SDS011;62113;45.624;11.700;2022-07-24T00:31:15;14.90;;;4.72;;
63012;SDS011;62113;45.624;11.700;2022-07-24T00:33:41;8.40;;;4.85;;
63012;SDS011;62113;45.624;11.700;2022-07-24T00:36:07;6.20;;;5.05;;
63012;SDS011;62113;45.624;11.700;2022-07-24T00:38:32;8.57;;;4.82;;
63012;SDS011;62113;45.624;11.700;2022-07-24T00:40:58;6.47;;;5.00;;
63012;SDS011;62113;45.624;11.700;2022-07-24T00:43:24;9.18;;;4.43;;
63012;SDS011;62113;45.624;11.700;2022-07-24T00:45:50;14.82;;;4.88;;
63012;SDS011;62113;45.624;11.700;2022-07-24T00:48:15;11.07;;;4.93;;
63012;SDS011;62113;45.624;11.700;2022-07-24T00:50:41;6.45;;;5.10;;
63012;SDS011;62113;45.624;11.700;2022-07-24T00:53:07;10.63;;;4.65;;
63012;SDS011;62113;45.624;11.700;2022-07-24T00:55:33;6.07;;;4.30;;
63012;SDS011;62113;45.624;11.700;2022-07-24T00:57:59;6.22;;;4.63;;
63012;SDS011;62113;45.624;11.700;2022-07-24T01:00:25;13.80;;;4.55;;
63012;SDS011;62113;45.624;11.700;2022-07-24T01:02:51;9.45;;;4.53;;
63012;SDS011;62113;45.624;11.700;2022-07-24T01:05:17;7.93;;;4.70;;
63012;SDS011;62113;45.624;11.700;2022-07-24T01:10:09;6.07;;;4.07;;
63012;SDS011;62113;45.624;11.700;2022-07-24T01:12:36;10.80;;;4.45;;
63012;SDS011;62113;45.624;11.700;2022-07-24T01:15:03;9.48;;;4.13;;
63012;SDS011;62113;45.624;11.700;2022-07-24T01:17:31;7.30;;;4.15;;
63012;SDS011;62113;45.624;11.700;2022-07-24T01:19:58;6.68;;;4.57;;
63012;SDS011;62113;45.624;11.700;2022-07-24T01:24:50;7.57;;;4.28;;
63012;SDS011;62113;45.624;11.700;2022-07-24T01:27:16;9.70;;;4.13;;
63012;SDS011;62113;45.624;11.700;2022-07-24T01:32:08;6.57;;;4.22;;
63012;SDS011;62113;45.624;11.700;2022-07-24T01:34:33;8.45;;;3.70;;
63012;SDS011;62113;45.624;11.700;2022-07-24T01:36:59;10.25;;;4.20;;
63012;SDS011;62113;45.624;11.700;2022-07-24T01:39:25;6.88;;;3.60;;
63012;SDS011;62113;45.624;11.700;2022-07-24T01:41:50;11.60;;;3.83;;
63012;SDS011;62113;45.624;11.700;2022-07-24T01:44:16;7.20;;;3.60;;
63012;SDS011;62113;45.624;11.700;2022-07-24T01:46:42;6.40;;;3.30;;
63012;SDS011;62113;45.624;11.700;2022-07-24T01:49:08;5.45;;;3.80;;
63012;SDS011;62113;45.624;11.700;2022-07-24T01:51:33;4.65;;;3.65;;
63012;SDS011;62113;45.624;11.700;2022-07-24T01:53:59;7.20;;;3.80;;
63012;SDS011;62113;45.624;11.700;2022-07-24T01:56:27;6.35;;;3.10;;
63012;SDS011;62113;45.624;11.700;2022-07-24T02:01:19;5.50;;;3.15;;
63012;SDS011;62113;45.624;11.700;2022-07-24T02:03:44;7.50;;;3.00;;
63012;SDS011;62113;45.624;11.700;2022-07-24T02:06:10;5.40;;;3.28;;
63012;SDS011;62113;45.624;11.700;2022-07-24T02:08:36;11.65;;;3.55;;
63012;SDS011;62113;45.624;11.700;2022-07-24T02:11:01;5.22;;;3.33;;
63012;SDS011;62113;45.624;11.700;2022-07-24T02:13:27;4.63;;;2.90;;
63012;SDS011;62113;45.624;11.700;2022-07-24T02:15:52;6.68;;;3.03;;
63012;SDS011;62113;45.624;11.700;2022-07-24T02:18:18;10.02;;;3.05;;
63012;SDS011;62113;45.624;11.700;2022-07-24T02:20:44;9.05;;;3.25;;
63012;SDS011;62113;45.624;11.700;2022-07-24T02:23:09;3.75;;;3.30;;
63012;SDS011;62113;45.624;11.700;2022-07-24T02:25:35;8.38;;;3.30;;
63012;SDS011;62113;45.624;11.700;2022-07-24T02:28:01;4.47;;;3.13;;
63012;SDS011;62113;45.624;11.700;2022-07-24T02:30:26;7.15;;;3.15;;
63012;SDS011;62113;45.624;11.700;2022-07-24T02:32:52;4.35;;;3.20;;
63012;SDS011;62113;45.624;11.700;2022-07-24T02:35:17;3.92;;;2.90;;
63012;SDS011;62113;45.624;11.700;2022-07-24T02:37:44;6.25;;;3.33;;
63012;SDS011;62113;45.624;11.700;2022-07-24T02:40:11;3.22;;;2.92;;
63012;SDS011;62113;45.624;11.700;2022-07-24T02:42:37;4.50;;;3.53;;
63012;SDS011;62113;45.624;11.700;2022-07-24T02:45:04;3.55;;;2.92;;
63012;SDS011;62113;45.624;11.700;2022-07-24T02:47:31;7.47;;;3.50;;
63012;SDS011;62113;45.624;11.700;2022-07-24T02:49:56;6.25;;;3.10;;
63012;SDS011;62113;45.624;11.700;2022-07-24T02:52:22;5.53;;;3.35;;
63012;SDS011;62113;45.624;11.700;2022-07-24T02:54:48;5.97;;;3.28;;
63012;SDS011;62113;45.624;11.700;2022-07-24T02:57:13;3.75;;;3.38;;
63012;SDS011;62113;45.624;11.700;2022-07-24T02:59:39;7.55;;;3.45;;
63012;SDS011;62113;45.624;11.700;2022-07-24T03:02:04;5.72;;;3.20;;
63012;SDS011;62113;45.624;11.700;2022-07-24T03:04:31;3.90;;;3.30;;
63012;SDS011;62113;45.624;11.700;2022-07-24T03:06:56;4.70;;;3.33;;
63012;SDS011;62113;45.624;11.700;2022-07-24T03:09:22;9.80;;;3.40;;
63012;SDS011;62113;45.624;11.700;2022-07-24T03:11:48;7.43;;;3.28;;
63012;SDS011;62113;45.624;11.700;2022-07-24T03:14:14;4.18;;;3.55;;
63012;SDS011;62113;45.624;11.700;2022-07-24T03:16:39;6.45;;;3.15;;
63012;SDS011;62113;45.624;11.700;2022-07-24T03:19:05;4.88;;;3.42;;
63012;SDS011;62113;45.624;11.700;2022-07-24T03:21:31;7.43;;;3.20;;
63012;SDS011;62113;45.624;11.700;2022-07-24T03:23:56;7.90;;;3.50;;
63012;SDS011;62113;45.624;11.700;2022-07-24T03:26:22;5.22;;;3.38;;
63012;SDS011;62113;45.624;11.700;2022-07-24T03:28:47;12.82;;;3.85;;
63012;SDS011;62113;45.624;11.700;2022-07-24T03:31:13;6.88;;;4.20;;
63012;SDS011;62113;45.624;11.700;2022-07-24T03:33:39;8.65;;;4.97;;
63012;SDS011;62113;45.624;11.700;2022-07-24T03:36:04;11.45;;;4.97;;
63012;SDS011;62113;45.624;11.700;2022-07-24T03:38:30;8.88;;;5.03;;
63012;SDS011;62113;45.624;11.700;2022-07-24T03:40:56;11.00;;;4.95;;
63012;SDS011;62113;45.624;11.700;2022-07-24T03:43:21;7.50;;;5.13;;
63012;SDS011;62113;45.624;11.700;2022-07-24T03:45:47;13.45;;;5.60;;
63012;SDS011;62113;45.624;11.700;2022-07-24T03:48:13;15.15;;;5.63;;
63012;SDS011;62113;45.624;11.700;2022-07-24T03:50:38;9.90;;;5.07;;
63012;SDS011;62113;45.624;11.700;2022-07-24T03:53:04;14.07;;;5.28;;
63012;SDS011;62113;45.624;11.700;2022-07-24T03:55:30;6.50;;;5.15;;
63012;SDS011;62113;45.624;11.700;2022-07-24T03:57:55;11.05;;;5.90;;
63012;SDS011;62113;45.624;11.700;2022-07-24T04:00:21;11.63;;;6.38;;
63012;SDS011;62113;45.624;11.700;2022-07-24T04:02:46;11.35;;;5.63;;
63012;SDS011;62113;45.624;11.700;2022-07-24T04:05:12;11.85;;;5.70;;
63012;SDS011;62113;45.624;11.700;2022-07-24T04:07:38;5.75;;;4.70;;
63012;SDS011;62113;45.624;11.700;2022-07-24T04:10:05;6.20;;;4.72;;
63012;SDS011;62113;45.624;11.700;2022-07-24T04:12:32;9.43;;;4.72;;
63012;SDS011;62113;45.624;11.700;2022-07-24T04:17:24;7.55;;;4.22;;
63012;SDS011;62113;45.624;11.700;2022-07-24T04:19:49;5.88;;;4.22;;
63012;SDS011;62113;45.624;11.700;2022-07-24T04:22:15;9.55;;;4.45;;
63012;SDS011;62113;45.624;11.700;2022-07-24T04:24:40;5.68;;;4.30;;
63012;SDS011;62113;45.624;11.700;2022-07-24T04:27:06;6.20;;;4.15;;
63012;SDS011;62113;45.624;11.700;2022-07-24T04:29:32;6.65;;;4.32;;
63012;SDS011;62113;45.624;11.700;2022-07-24T04:31:57;12.30;;;3.95;;
63012;SDS011;62113;45.624;11.700;2022-07-24T04:34:23;6.25;;;4.30;;
63012;SDS011;62113;45.624;11.700;2022-07-24T04:36:49;8.38;;;4.32;;
63012;SDS011;62113;45.624;11.700;2022-07-24T04:39:15;5.32;;;4.50;;
63012;SDS011;62113;45.624;11.700;2022-07-24T04:41:40;5.65;;;4.10;;
63012;SDS011;62113;45.624;11.700;2022-07-24T04:44:06;8.57;;;4.45;;
63012;SDS011;62113;45.624;11.700;2022-07-24T04:46:32;6.07;;;4.15;;
63012;SDS011;62113;45.624;11.700;2022-07-24T04:48:57;11.48;;;5.10;;
63012;SDS011;62113;45.624;11.700;2022-07-24T04:51:23;4.53;;;4.13;;
63012;SDS011;62113;45.624;11.700;2022-07-24T04:53:49;8.43;;;4.50;;
63012;SDS011;62113;45.624;11.700;2022-07-24T04:56:18;5.28;;;4.43;;
63012;SDS011;62113;45.624;11.700;2022-07-24T04:58:44;5.65;;;4.45;;
63012;SDS011;62113;45.624;11.700;2022-07-24T05:01:10;6.82;;;4.45;;
63012;SDS011;62113;45.624;11.700;2022-07-24T05:03:35;5.15;;;4.15;;
63012;SDS011;62113;45.624;11.700;2022-07-24T05:06:01;6.70;;;4.50;;
63012;SDS011;62113;45.624;11.700;2022-07-24T05:08:27;13.52;;;4.35;;
63012;SDS011;62113;45.624;11.700;2022-07-24T05:10:52;7.43;;;4.30;;
63012;SDS011;62113;45.624;11.700;2022-07-24T05:13:18;7.05;;;4.63;;
63012;SDS011;62113;45.624;11.700;2022-07-24T05:15:43;11.43;;;4.10;;
63012;SDS011;62113;45.624;11.700;2022-07-24T05:18:09;5.80;;;4.25;;
63012;SDS011;62113;45.624;11.700;2022-07-24T05:20:35;4.47;;;3.80;;
63012;SDS011;62113;45.624;11.700;2022-07-24T05:23:01;11.00;;;4.78;;
63012;SDS011;62113;45.624;11.700;2022-07-24T05:25:26;12.35;;;6.90;;
63012;SDS011;62113;45.624;11.700;2022-07-24T05:27:52;13.38;;;6.63;;
63012;SDS011;62113;45.624;11.700;2022-07-24T05:30:18;13.07;;;6.85;;
63012;SDS011;62113;45.624;11.700;2022-07-24T05:32:43;7.63;;;4.47;;
63012;SDS011;62113;45.624;11.700;2022-07-24T05:35:09;7.47;;;5.07;;
63012;SDS011;62113;45.624;11.700;2022-07-24T05:37:34;6.30;;;4.57;;
63012;SDS011;62113;45.624;11.700;2022-07-24T05:40:00;7.28;;;4.25;;
63012;SDS011;62113;45.624;11.700;2022-07-24T05:42:26;4.63;;;3.72;;
63012;SDS011;62113;45.624;11.700;2022-07-24T05:44:51;6.25;;;3.60;;
63012;SDS011;62113;45.624;11.700;2022-07-24T05:47:17;8.98;;;4.05;;
63012;SDS011;62113;45.624;11.700;2022-07-24T05:49:42;5.38;;;3.75;;
63012;SDS011;62113;45.624;11.700;2022-07-24T05:52:08;3.55;;;3.25;;
63012;SDS011;62113;45.624;11.700;2022-07-24T05:54:34;8.05;;;3.53;;
63012;SDS011;62113;45.624;11.700;2022-07-24T05:56:59;4.28;;;3.50;;
63012;SDS011;62113;45.624;11.700;2022-07-24T05:59:25;4.60;;;3.75;;
63012;SDS011;62113;45.624;11.700;2022-07-24T06:01:50;6.40;;;3.90;;
63012;SDS011;62113;45.624;11.700;2022-07-24T06:04:16;5.47;;;3.83;;
63012;SDS011;62113;45.624;11.700;2022-07-24T06:06:42;5.72;;;3.95;;
63012;SDS011;62113;45.624;11.700;2022-07-24T06:09:07;4.10;;;3.80;;
63012;SDS011;62113;45.624;11.700;2022-07-24T06:11:33;5.57;;;3.90;;
63012;SDS011;62113;45.624;11.700;2022-07-24T06:18:49;8.88;;;4.43;;
63012;SDS011;62113;45.624;11.700;2022-07-24T06:21:15;4.82;;;4.10;;
63012;SDS011;62113;45.624;11.700;2022-07-24T06:26:06;6.15;;;4.03;;
63012;SDS011;62113;45.624;11.700;2022-07-24T06:33:23;7.68;;;4.50;;
63012;SDS011;62113;45.624;11.700;2022-07-24T06:35:49;6.65;;;4.10;;
63012;SDS011;62113;45.624;11.700;2022-07-24T06:40:41;9.80;;;4.38;;
63012;SDS011;62113;45.624;11.700;2022-07-24T06:43:07;10.55;;;4.60;;
63012;SDS011;62113;45.624;11.700;2022-07-24T06:45:33;7.07;;;5.18;;
63012;SDS011;62113;45.624;11.700;2022-07-24T06:48:02;9.52;;;4.50;;
63012;SDS011;62113;45.624;11.700;2022-07-24T06:50:28;12.05;;;5.00;;
63012;SDS011;62113;45.624;11.700;2022-07-24T06:52:54;8.57;;;4.88;;
63012;SDS011;62113;45.624;11.700;2022-07-24T06:55:20;9.05;;;4.38;;
63012;SDS011;62113;45.624;11.700;2022-07-24T06:57:47;21.67;;;5.18;;
63012;SDS011;62113;45.624;11.700;2022-07-24T07:00:12;10.20;;;5.07;;
63012;SDS011;62113;45.624;11.700;2022-07-24T07:02:39;12.57;;;4.55;;
63012;SDS011;62113;45.624;11.700;2022-07-24T07:05:05;8.52;;;4.63;;
63012;SDS011;62113;45.624;11.700;2022-07-24T07:07:31;7.97;;;4.35;;
63012;SDS011;62113;45.624;11.700;2022-07-24T07:09:57;7.47;;;4.53;;
63012;SDS011;62113;45.624;11.700;2022-07-24T07:12:23;10.27;;;4.03;;
63012;SDS011;62113;45.624;11.700;2022-07-24T07:14:48;5.70;;;4.20;;
63012;SDS011;62113;45.624;11.700;2022-07-24T07:17:14;8.85;;;4.32;;
63012;SDS011;62113;45.624;11.700;2022-07-24T07:19:43;16.90;;;4.25;;
63012;SDS011;62113;45.624;11.700;2022-07-24T07:22:09;6.80;;;4.15;;
63012;SDS011;62113;45.624;11.700;2022-07-24T07:24:36;7.55;;;4.30;;
63012;SDS011;62113;45.624;11.700;2022-07-24T07:27:01;6.95;;;3.45;;
63012;SDS011;62113;45.624;11.700;2022-07-24T07:29:27;7.90;;;4.22;;
63012;SDS011;62113;45.624;11.700;2022-07-24T07:31:53;9.10;;;3.58;;
63012;SDS011;62113;45.624;11.700;2022-07-24T07:34:18;7.95;;;3.65;;
63012;SDS011;62113;45.624;11.700;2022-07-24T07:36:44;10.00;;;3.70;;
63012;SDS011;62113;45.624;11.700;2022-07-24T07:39:10;7.45;;;3.15;;
63012;SDS011;62113;45.624;11.700;2022-07-24T07:41:35;7.28;;;3.55;;
63012;SDS011;62113;45.624;11.700;2022-07-24T07:44:01;6.53;;;3.42;;
63012;SDS011;62113;45.624;11.700;2022-07-24T07:46:27;8.00;;;3.22;;
63012;SDS011;62113;45.624;11.700;2022-07-24T07:48:53;3.40;;;3.03;;
63012;SDS011;62113;45.624;11.700;2022-07-24T07:51:19;5.60;;;3.30;;
63012;SDS011;62113;45.624;11.700;2022-07-24T07:53:45;10.27;;;3.33;;
63012;SDS011;62113;45.624;11.700;2022-07-24T07:56:10;5.22;;;3.63;;
63012;SDS011;62113;45.624;11.700;2022-07-24T07:58:36;14.55;;;3.08;;
63012;SDS011;62113;45.624;11.700;2022-07-24T08:01:02;8.93;;;2.90;;
63012;SDS011;62113;45.624;11.700;2022-07-24T08:03:28;2.50;;;2.30;;
63012;SDS011;62113;45.624;11.700;2022-07-24T08:05:53;2.63;;;2.42;;
63012;SDS011;62113;45.624;11.700;2022-07-24T08:08:19;2.70;;;2.28;;
63012;SDS011;62113;45.624;11.700;2022-07-24T08:10:45;2.55;;;2.35;;
63012;SDS011;62113;45.624;11.700;2022-07-24T08:13:10;3.30;;;2.35;;
63012;SDS011;62113;45.624;11.700;2022-07-24T08:15:37;3.13;;;2.10;;
63012;SDS011;62113;45.624;11.700;2022-07-24T08:18:03;3.90;;;2.45;;
63012;SDS011;62113;45.624;11.700;2022-07-24T08:20:29;3.97;;;2.30;;
63012;SDS011;62113;45.624;11.700;2022-07-24T08:22:55;2.38;;;2.17;;
63012;SDS011;62113;45.624;11.700;2022-07-24T08:25:21;5.80;;;2.70;;
63012;SDS011;62113;45.624;11.700;2022-07-24T08:27:47;2.33;;;2.08;;
63012;SDS011;62113;45.624;11.700;2022-07-24T08:30:13;3.38;;;2.50;;
63012;SDS011;62113;45.624;11.700;2022-07-24T08:32:39;4.20;;;2.60;;
63012;SDS011;62113;45.624;11.700;2022-07-24T08:35:05;3.30;;;2.50;;
63012;SDS011;62113;45.624;11.700;2022-07-24T08:37:39;4.13;;;2.22;;
63012;SDS011;62113;45.624;11.700;2022-07-24T08:40:06;2.58;;;2.38;;
63012;SDS011;62113;45.624;11.700;2022-07-24T08:42:34;3.35;;;2.47;;
63012;SDS011;62113;45.624;11.700;2022-07-24T08:45:00;4.32;;;2.53;;
63012;SDS011;62113;45.624;11.700;2022-07-24T08:47:26;2.72;;;2.40;;
63012;SDS011;62113;45.624;11.700;2022-07-24T08:49:53;3.05;;;2.50;;
63012;SDS011;62113;45.624;11.700;2022-07-24T08:52:21;3.85;;;2.63;;
63012;SDS011;62113;45.624;11.700;2022-07-24T08:54:47;3.22;;;2.38;;
63012;SDS011;62113;45.624;11.700;2022-07-24T08:57:13;6.30;;;2.55;;
63012;SDS011;62113;45.624;11.700;2022-07-24T08:59:39;3.35;;;2.60;;
63012;SDS011;62113;45.624;11.700;2022-07-24T09:02:04;3.60;;;2.55;;
63012;SDS011;62113;45.624;11.700;2022-07-24T09:06:59;4.70;;;2.90;;
63012;SDS011;62113;45.624;11.700;2022-07-24T09:09:25;3.22;;;2.65;;
63012;SDS011;62113;45.624;11.700;2022-07-24T09:12:04;2.83;;;2.55;;
63012;SDS011;62113;45.624;11.700;2022-07-24T09:14:38;5.40;;;2.70;;
63012;SDS011;62113;45.624;11.700;2022-07-24T09:17:09;4.00;;;2.80;;
63012;SDS011;62113;45.624;11.700;2022-07-24T09:22:32;8.15;;;2.50;;
63012;SDS011;62113;45.624;11.700;2022-07-24T09:27:38;2.88;;;2.28;;
63012;SDS011;62113;45.624;11.700;2022-07-24T09:35:41;3.88;;;2.50;;
63012;SDS011;62113;45.624;11.700;2022-07-24T09:38:08;3.70;;;2.30;;
63012;SDS011;62113;45.624;11.700;2022-07-24T09:40:36;4.95;;;2.30;;
63012;SDS011;62113;45.624;11.700;2022-07-24T09:43:18;3.55;;;2.33;;
63012;SDS011;62113;45.624;11.700;2022-07-24T09:48:23;2.50;;;2.30;;
63012;SDS011;62113;45.624;11.700;2022-07-24T09:50:53;2.80;;;2.60;;
63012;SDS011;62113;45.624;11.700;2022-07-24T09:53:21;3.88;;;2.50;;
63012;SDS011;62113;45.624;11.700;2022-07-24T09:56:31;4.10;;;2.58;;
63012;SDS011;62113;45.624;11.700;2022-07-24T10:01:11;10.13;;;2.47;;
63012;SDS011;62113;45.624;11.700;2022-07-24T10:03:38;2.35;;;2.25;;
63012;SDS011;62113;45.624;11.700;2022-07-24T10:06:07;4.30;;;2.38;;
63012;SDS011;62113;45.624;11.700;2022-07-24T10:08:35;3.67;;;2.67;;
63012;SDS011;62113;45.624;11.700;2022-07-24T10:11:02;2.83;;;2.20;;
63012;SDS011;62113;45.624;11.700;2022-07-24T10:13:27;6.38;;;2.45;;
63012;SDS011;62113;45.624;11.700;2022-07-24T10:18:51;3.65;;;2.60;;
63012;SDS011;62113;45.624;11.700;2022-07-24T10:21:20;2.60;;;2.42;;
63012;SDS011;62113;45.624;11.700;2022-07-24T10:26:35;2.77;;;2.57;;
63012;SDS011;62113;45.624;11.700;2022-07-24T10:29:05;5.13;;;2.40;;
63012;SDS011;62113;45.624;11.700;2022-07-24T10:31:36;2.65;;;2.40;;
63012;SDS011;62113;45.624;11.700;2022-07-24T10:36:51;2.20;;;2.00;;
63012;SDS011;62113;45.624;11.700;2022-07-24T10:39:43;2.22;;;2.03;;
63012;SDS011;62113;45.624;11.700;2022-07-24T10:42:12;3.53;;;2.25;;
63012;SDS011;62113;45.624;11.700;2022-07-24T10:44:38;6.35;;;2.58;;
63012;SDS011;62113;45.624;11.700;2022-07-24T10:47:08;2.92;;;2.58;;
63012;SDS011;62113;45.624;11.700;2022-07-24T10:52:04;4.60;;;2.50;;
63012;SDS011;62113;45.624;11.700;2022-07-24T10:54:30;6.22;;;2.50;;
63012;SDS011;62113;45.624;11.700;2022-07-24T10:56:56;2.53;;;2.33;;
63012;SDS011;62113;45.624;11.700;2022-07-24T10:59:35;3.00;;;2.55;;
63012;SDS011;62113;45.624;11.700;2022-07-24T11:05:11;6.63;;;2.90;;
63012;SDS011;62113;45.624;11.700;2022-07-24T11:10:44;5.05;;;3.08;;
63012;SDS011;62113;45.624;11.700;2022-07-24T11:26:58;4.45;;;2.90;;
63012;SDS011;62113;45.624;11.700;2022-07-24T11:29:30;3.80;;;2.87;;
63012;SDS011;62113;45.624;11.700;2022-07-24T11:34:33;4.03;;;2.90;;
63012;SDS011;62113;45.624;11.700;2022-07-24T11:37:00;4.13;;;3.00;;
63012;SDS011;62113;45.624;11.700;2022-07-24T11:39:36;5.40;;;2.90;;
63012;SDS011;62113;45.624;11.700;2022-07-24T11:42:06;5.28;;;3.10;;
63012;SDS011;62113;45.624;11.700;2022-07-24T11:44:37;6.57;;;3.42;;
63012;SDS011;62113;45.624;11.700;2022-07-24T11:47:08;6.40;;;3.33;;
63012;SDS011;62113;45.624;11.700;2022-07-24T11:49:40;4.95;;;3.00;;
63012;SDS011;62113;45.624;11.700;2022-07-24T11:52:14;5.72;;;2.88;;
63012;SDS011;62113;45.624;11.700;2022-07-24T11:54:48;3.40;;;3.10;;
63012;SDS011;62113;45.624;11.700;2022-07-24T11:57:19;4.93;;;2.88;;
63012;SDS011;62113;45.624;11.700;2022-07-24T11:59:51;3.65;;;2.97;;
63012;SDS011;62113;45.624;11.700;2022-07-24T12:02:17;6.75;;;3.13;;
63012;SDS011;62113;45.624;11.700;2022-07-24T12:04:44;5.25;;;2.92;;
63012;SDS011;62113;45.624;11.700;2022-07-24T12:07:11;4.35;;;3.20;;
63012;SDS011;62113;45.624;11.700;2022-07-24T12:10:00;3.75;;;3.20;;
63012;SDS011;62113;45.624;11.700;2022-07-24T12:12:28;3.60;;;3.20;;
63012;SDS011;62113;45.624;11.700;2022-07-24T12:17:52;4.10;;;3.20;;
63012;SDS011;62113;45.624;11.700;2022-07-24T12:20:28;4.22;;;3.58;;
63012;SDS011;62113;45.624;11.700;2022-07-24T12:23:07;8.98;;;3.45;;
63012;SDS011;62113;45.624;11.700;2022-07-24T12:25:35;3.60;;;3.30;;
63012;SDS011;62113;45.624;11.700;2022-07-24T12:28:01;5.15;;;3.55;;
63012;SDS011;62113;45.624;11.700;2022-07-24T12:30:31;14.35;;;3.25;;
63012;SDS011;62113;45.624;11.700;2022-07-24T12:33:20;7.18;;;3.17;;
63012;SDS011;62113;45.624;11.700;2022-07-24T12:38:28;4.28;;;3.25;;
63012;SDS011;62113;45.624;11.700;2022-07-24T12:41:08;7.78;;;3.17;;
63012;SDS011;62113;45.624;11.700;2022-07-24T12:43:54;7.60;;;3.40;;
63012;SDS011;62113;45.624;11.700;2022-07-24T12:46:38;4.18;;;3.20;;
63012;SDS011;62113;45.624;11.700;2022-07-24T12:49:15;4.78;;;3.13;;
63012;SDS011;62113;45.624;11.700;2022-07-24T12:51:54;7.07;;;3.67;;
63012;SDS011;62113;45.624;11.700;2022-07-24T12:54:25;4.00;;;3.05;;
63012;SDS011;62113;45.624;11.700;2022-07-24T12:56:56;4.65;;;3.35;;
63012;SDS011;62113;45.624;11.700;2022-07-24T12:59:30;8.65;;;3.33;;
63012;SDS011;62113;45.624;11.700;2022-07-24T13:01:59;7.22;;;3.75;;
63012;SDS011;62113;45.624;11.700;2022-07-24T13:04:44;7.40;;;3.50;;
63012;SDS011;62113;45.624;11.700;2022-07-24T13:07:12;6.47;;;3.20;;
63012;SDS011;62113;45.624;11.700;2022-07-24T13:09:40;6.30;;;3.60;;
63012;SDS011;62113;45.624;11.700;2022-07-24T13:12:06;5.57;;;3.17;;
63012;SDS011;62113;45.624;11.700;2022-07-24T13:14:33;8.30;;;3.70;;
63012;SDS011;62113;45.624;11.700;2022-07-24T13:17:06;21.98;;;3.50;;
63012;SDS011;62113;45.624;11.700;2022-07-24T13:19:35;4.72;;;3.58;;
63012;SDS011;62113;45.624;11.700;2022-07-24T13:22:01;4.25;;;3.22;;
63012;SDS011;62113;45.624;11.700;2022-07-24T13:24:26;5.80;;;3.40;;
63012;SDS011;62113;45.624;11.700;2022-07-24T13:26:54;3.92;;;3.38;;
63012;SDS011;62113;45.624;11.700;2022-07-24T13:29:20;6.03;;;3.70;;
63012;SDS011;62113;45.624;11.700;2022-07-24T13:31:47;3.72;;;3.33;;
63012;SDS011;62113;45.624;11.700;2022-07-24T13:34:12;7.35;;;3.75;;
63012;SDS011;62113;45.624;11.700;2022-07-24T13:36:38;5.35;;;3.28;;
63012;SDS011;62113;45.624;11.700;2022-07-24T13:39:04;7.43;;;3.17;;
63012;SDS011;62113;45.624;11.700;2022-07-24T13:41:31;9.88;;;3.47;;
63012;SDS011;62113;45.624;11.700;2022-07-24T13:43:57;5.70;;;4.13;;
63012;SDS011;62113;45.624;11.700;2022-07-24T13:46:23;5.85;;;3.35;;
63012;SDS011;62113;45.624;11.700;2022-07-24T13:48:49;5.38;;;3.63;;
63012;SDS011;62113;45.624;11.700;2022-07-24T13:51:15;5.25;;;3.80;;
63012;SDS011;62113;45.624;11.700;2022-07-24T13:53:40;4.72;;;3.53;;
63012;SDS011;62113;45.624;11.700;2022-07-24T13:56:06;4.72;;;3.42;;
63012;SDS011;62113;45.624;11.700;2022-07-24T13:58:32;3.38;;;3.15;;
63012;SDS011;62113;45.624;11.700;2022-07-24T14:01:01;4.93;;;3.00;;
63012;SDS011;62113;45.624;11.700;2022-07-24T14:03:27;7.72;;;3.53;;
63012;SDS011;62113;45.624;11.700;2022-07-24T14:05:53;7.75;;;3.80;;
63012;SDS011;62113;45.624;11.700;2022-07-24T14:08:19;3.72;;;3.00;;
63012;SDS011;62113;45.624;11.700;2022-07-24T14:10:44;6.97;;;3.05;;
63012;SDS011;62113;45.624;11.700;2022-07-24T14:13:10;4.13;;;3.05;;
63012;SDS011;62113;45.624;11.700;2022-07-24T14:15:36;5.75;;;3.20;;
63012;SDS011;62113;45.624;11.700;2022-07-24T14:18:02;6.30;;;3.20;;
63012;SDS011;62113;45.624;11.700;2022-07-24T14:20:28;4.43;;;3.00;;
63012;SDS011;62113;45.624;11.700;2022-07-24T14:22:54;5.82;;;3.40;;
63012;SDS011;62113;45.624;11.700;2022-07-24T14:25:19;6.07;;;3.13;;
63012;SDS011;62113;45.624;11.700;2022-07-24T14:27:45;4.50;;;3.15;;
63012;SDS011;62113;45.624;11.700;2022-07-24T14:30:11;4.35;;;3.05;;
63012;SDS011;62113;45.624;11.700;2022-07-24T14:32:37;6.30;;;3.28;;
63012;SDS011;62113;45.624;11.700;2022-07-24T14:35:03;6.10;;;3.53;;
63012;SDS011;62113;45.624;11.700;2022-07-24T14:37:32;5.63;;;2.97;;
63012;SDS011;62113;45.624;11.700;2022-07-24T14:40:02;10.80;;;3.28;;
63012;SDS011;62113;45.624;11.700;2022-07-24T14:42:29;5.43;;;3.70;;
63012;SDS011;62113;45.624;11.700;2022-07-24T14:44:54;5.78;;;3.20;;
63012;SDS011;62113;45.624;11.700;2022-07-24T14:47:20;10.32;;;3.30;;
63012;SDS011;62113;45.624;11.700;2022-07-24T14:49:46;6.93;;;3.20;;
63012;SDS011;62113;45.624;11.700;2022-07-24T14:52:12;10.27;;;3.10;;
63012;SDS011;62113;45.624;11.700;2022-07-24T14:54:38;6.90;;;3.10;;
63012;SDS011;62113;45.624;11.700;2022-07-24T14:57:04;7.50;;;2.80;;
63012;SDS011;62113;45.624;11.700;2022-07-24T14:59:32;7.85;;;3.53;;
63012;SDS011;62113;45.624;11.700;2022-07-24T15:01:58;6.45;;;3.03;;
63012;SDS011;62113;45.624;11.700;2022-07-24T15:04:24;5.07;;;2.95;;
63012;SDS011;62113;45.624;11.700;2022-07-24T15:06:49;7.63;;;3.60;;
63012;SDS011;62113;45.624;11.700;2022-07-24T15:09:15;7.00;;;2.80;;
63012;SDS011;62113;45.624;11.700;2022-07-24T15:11:41;6.85;;;3.08;;
63012;SDS011;62113;45.624;11.700;2022-07-24T15:14:06;6.53;;;3.03;;
63012;SDS011;62113;45.624;11.700;2022-07-24T15:16:32;3.90;;;3.05;;
63012;SDS011;62113;45.624;11.700;2022-07-24T15:18:58;6.03;;;3.20;;
63012;SDS011;62113;45.624;11.700;2022-07-24T15:21:23;9.40;;;2.97;;
63012;SDS011;62113;45.624;11.700;2022-07-24T15:23:49;8.02;;;2.83;;
63012;SDS011;62113;45.624;11.700;2022-07-24T15:26:14;8.20;;;3.05;;
63012;SDS011;62113;45.624;11.700;2022-07-24T15:28:40;5.03;;;3.10;;
63012;SDS011;62113;45.624;11.700;2022-07-24T15:31:05;6.25;;;3.25;;
63012;SDS011;62113;45.624;11.700;2022-07-24T15:33:31;4.88;;;3.10;;
63012;SDS011;62113;45.624;11.700;2022-07-24T15:35:57;5.97;;;3.10;;
63012;SDS011;62113;45.624;11.700;2022-07-24T15:38:22;5.68;;;3.22;;
63012;SDS011;62113;45.624;11.700;2022-07-24T15:40:48;6.78;;;3.42;;
63012;SDS011;62113;45.624;11.700;2022-07-24T15:43:14;4.10;;;2.70;;
63012;SDS011;62113;45.624;11.700;2022-07-24T15:45:42;8.15;;;3.53;;
63012;SDS011;62113;45.624;11.700;2022-07-24T15:48:07;3.30;;;3.00;;
63012;SDS011;62113;45.624;11.700;2022-07-24T15:50:33;5.45;;;2.85;;
63012;SDS011;62113;45.624;11.700;2022-07-24T15:52:59;10.25;;;3.33;;
63012;SDS011;62113;45.624;11.700;2022-07-24T15:55:24;5.38;;;3.15;;
63012;SDS011;62113;45.624;11.700;2022-07-24T15:57:50;5.63;;;3.13;;
63012;SDS011;62113;45.624;11.700;2022-07-24T16:00:16;3.25;;;2.90;;